Faxon — 5IM631 — position and weather

sailwx.info

Track history (hours):
 
Tides and Currents Weather Stations Pressure Air Temp Water Temp Dewpoint Dewpoint Depression Visibility Wind Speed Wind Dir Waves Ship Positions

Faxon

Last reported at 2017-Oct-17 18:59 UTC. Time now 2017-Oct-18 11:26 UTC.
Position N 40°46' E 029°32'.

Length 175 m; draft 7.5 m.

Type: Tanker. MMSI: 677053000.

Date/timePositionNaut miles runAvg speedWind from/ knotsBaromVisibWave heightAir tempDewpointWater temp
2017-Oct-17 18:59N 40°46' E 029°32'3 5.1
2017-Oct-17 18:27N 40°46' E 029°28'1 2.8
2017-Oct-17 18:00N 40°46' E 029°26'0 0.0
2017-Oct-17 03:41N 40°46' E 029°26'0 0.0
2017-Oct-15 22:17N 40°46' E 029°26'0 0.0
2017-Oct-15 01:34N 40°46' E 029°26'0 1.9
2017-Oct-15 01:30N 40°46' E 029°26'3 6.6
2017-Oct-15 01:00N 40°44' E 029°23'4 8.3
2017-Oct-15 00:30N 40°43' E 029°18'5 9.6
2017-Oct-14 23:57N 40°46' E 029°11'5 9.6
2017-Oct-14 23:27N 40°48' E 029°06'4 9.4
2017-Oct-14 23:00N 40°50' E 029°01'164 6.0
2017-Oct-13 19:38N 43°34' E 028°48'1 9.4
2017-Oct-13 19:29N 43°35' E 028°48'4 9.4
2017-Oct-13 19:00N 43°40' E 028°48'5 9.4
2017-Oct-13 18:30N 43°44' E 028°47'5 9.4
2017-Oct-13 18:00N 43°49' E 028°46'5 9.4
2017-Oct-13 17:30N 43°54' E 028°45'5 9.5
2017-Oct-13 17:00N 43°58' E 028°44'5 9.4
2017-Oct-13 16:30N 44°03' E 028°43'5 9.1
2017-Oct-13 16:00N 44°07' E 028°41'2 3.6
2017-Oct-13 15:30N 44°08' E 028°39'0 1.0
2017-Oct-13 15:00N 44°08' E 028°39'0 0.0
2017-Oct-13 14:25N 44°08' E 028°39'0 0.0
2017-Oct-13 13:58N 44°08' E 028°39'0 0.0
2017-Oct-13 13:28N 44°08' E 028°39'0 0.0
2017-Oct-13 12:58N 44°08' E 028°39'0 0.0
2017-Oct-13 12:28N 44°08' E 028°39'0 0.0
2017-Oct-13 11:58N 44°08' E 028°39'0 0.0
2017-Oct-13 11:28N 44°08' E 028°39'0 0.0
2017-Oct-13 10:58N 44°08' E 028°39'0 0.0
2017-Oct-13 10:28N 44°08' E 028°39'0 0.0
2017-Oct-13 09:58N 44°08' E 028°39'0 0.0
2017-Oct-13 09:28N 44°08' E 028°39'0 0.0
2017-Oct-13 08:58N 44°08' E 028°39'0 0.0
2017-Oct-13 08:28N 44°08' E 028°39'0 0.0
2017-Oct-13 07:58N 44°08' E 028°39'0 0.0
2017-Oct-13 07:28N 44°08' E 028°39'0 0.0
2017-Oct-13 06:58N 44°08' E 028°39'0 0.0
2017-Oct-13 06:28N 44°08' E 028°39'0 0.0
2017-Oct-13 05:58N 44°08' E 028°39'0 0.0
2017-Oct-13 05:28N 44°08' E 028°39'0 0.0
2017-Oct-13 04:58N 44°08' E 028°39'0 0.0
2017-Oct-13 04:28N 44°08' E 028°39'0 0.0
2017-Oct-13 03:55N 44°08' E 028°39'0 0.0
2017-Oct-13 03:28N 44°08' E 028°39'0 0.0
2017-Oct-13 02:58N 44°08' E 028°39'0 0.0
2017-Oct-13 02:28N 44°08' E 028°39'0 0.0
2017-Oct-13 01:58N 44°08' E 028°39'0 0.0
2017-Oct-13 01:28N 44°08' E 028°39'0 0.0
2017-Oct-13 00:58N 44°08' E 028°39'0 0.0
2017-Oct-13 00:28N 44°08' E 028°39'0 0.0
2017-Oct-12 23:58N 44°08' E 028°39'0 0.0
2017-Oct-12 23:28N 44°08' E 028°39'0 0.0
2017-Oct-12 22:58N 44°08' E 028°39'0 0.0
2017-Oct-12 22:28N 44°08' E 028°39'0 0.0
2017-Oct-12 21:58N 44°08' E 028°39'0 0.0
2017-Oct-12 21:28N 44°08' E 028°39'0 0.0
2017-Oct-12 20:58N 44°08' E 028°39'0 0.0
2017-Oct-12 20:28N 44°08' E 028°39'0 0.0
2017-Oct-12 19:58N 44°08' E 028°39'0 0.0
2017-Oct-12 19:28N 44°08' E 028°39'0 0.0
2017-Oct-12 18:58N 44°08' E 028°39'0 0.0
2017-Oct-12 18:28N 44°08' E 028°39'0 0.1
2017-Oct-12 17:58N 44°08' E 028°39'0 0.0
2017-Oct-12 17:28N 44°08' E 028°39'0 0.0
2017-Oct-12 16:58N 44°08' E 028°39'0 0.0
2017-Oct-12 16:28N 44°08' E 028°39'0 0.0
2017-Oct-12 15:58N 44°08' E 028°39'0 0.0
2017-Oct-12 15:28N 44°08' E 028°39'0 0.0
2017-Oct-12 14:58N 44°08' E 028°39'0 0.0
2017-Oct-12 14:28N 44°08' E 028°39'0 0.0
2017-Oct-12 13:58N 44°08' E 028°39'0 0.0
2017-Oct-12 13:28N 44°08' E 028°39'0 0.0
2017-Oct-12 12:58N 44°08' E 028°39'0 0.0
2017-Oct-12 12:28N 44°08' E 028°39'0 0.0
2017-Oct-12 11:55N 44°08' E 028°39'0 0.0
2017-Oct-12 11:28N 44°08' E 028°39'0 0.0
2017-Oct-12 10:58N 44°08' E 028°39'0 0.0
2017-Oct-12 10:28N 44°08' E 028°39'0 0.0
2017-Oct-12 09:58N 44°08' E 028°39'0 0.0
2017-Oct-12 09:25N 44°08' E 028°39'0 0.0
2017-Oct-12 08:58N 44°08' E 028°39'0 0.0
2017-Oct-12 08:28N 44°08' E 028°39'0 0.0
2017-Oct-12 07:58N 44°08' E 028°39'0 0.0
2017-Oct-12 07:28N 44°08' E 028°39'0 0.0
2017-Oct-12 06:58N 44°08' E 028°39'0 0.0
2017-Oct-12 06:28N 44°08' E 028°39'0 0.0
2017-Oct-12 05:58N 44°08' E 028°39'0 0.0
2017-Oct-12 05:28N 44°08' E 028°39'0 0.0
2017-Oct-12 04:58N 44°08' E 028°39'0 0.1
2017-Oct-12 04:28N 44°08' E 028°39'0 0.0
2017-Oct-12 03:58N 44°08' E 028°39'0 0.0
2017-Oct-12 03:28N 44°08' E 028°39'0 0.0
2017-Oct-12 02:58N 44°08' E 028°39'0 0.0
2017-Oct-12 02:28N 44°08' E 028°39'0 0.0
2017-Oct-12 01:58N 44°08' E 028°39'0 0.0
2017-Oct-12 01:28N 44°08' E 028°39'0 0.0
2017-Oct-12 00:58N 44°08' E 028°39'0 0.0
2017-Oct-12 00:28N 44°08' E 028°39'0 0.0
2017-Oct-11 23:58N 44°08' E 028°39'0 0.0
2017-Oct-11 23:28N 44°08' E 028°39'0 0.0
2017-Oct-11 22:58N 44°08' E 028°39'0 0.0
2017-Oct-11 22:28N 44°08' E 028°39'0 0.0
2017-Oct-11 21:58N 44°08' E 028°39'0 0.0
2017-Oct-11 21:28N 44°08' E 028°39'0 0.0
2017-Oct-11 20:55N 44°08' E 028°39'0 0.0
2017-Oct-11 20:28N 44°08' E 028°39'0 0.0
2017-Oct-11 19:58N 44°08' E 028°39'0 0.0
2017-Oct-11 19:28N 44°08' E 028°39'0 0.0
2017-Oct-11 18:58N 44°08' E 028°39'0 0.0
2017-Oct-11 18:28N 44°08' E 028°39'0 0.0
2017-Oct-11 17:58N 44°08' E 028°39'0 0.0
2017-Oct-11 17:28N 44°08' E 028°39'0 0.0
2017-Oct-11 16:58N 44°08' E 028°39'0 0.0
2017-Oct-10 23:58N 44°08' E 028°39'0 0.0
2017-Oct-10 23:28N 44°08' E 028°39'0 0.0
2017-Oct-10 22:58N 44°08' E 028°39'0 0.0
2017-Oct-10 22:28N 44°08' E 028°39'0 0.0
2017-Oct-10 21:58N 44°08' E 028°39'0 0.0
2017-Oct-10 21:28N 44°08' E 028°39'0 0.0
2017-Oct-10 20:58N 44°08' E 028°39'0 0.0
2017-Oct-10 20:28N 44°08' E 028°39'0 0.0
2017-Oct-10 19:58N 44°08' E 028°39'0 0.0
2017-Oct-10 19:28N 44°08' E 028°39'0 0.0
2017-Oct-10 18:58N 44°08' E 028°39'0 0.0
2017-Oct-10 18:28N 44°08' E 028°39'0 0.0
2017-Oct-10 17:58N 44°08' E 028°39'0 0.0
2017-Oct-10 17:28N 44°08' E 028°39'0 0.0
2017-Oct-10 16:55N 44°08' E 028°39'0 0.0
2017-Oct-10 16:28N 44°08' E 028°39'0 0.0
2017-Oct-10 15:58N 44°08' E 028°39'0 0.0
2017-Oct-10 15:28N 44°08' E 028°39'0 0.0
2017-Oct-10 14:58N 44°08' E 028°39'0 0.0
2017-Oct-10 13:55N 44°08' E 028°39'0 0.0
2017-Oct-10 13:25N 44°08' E 028°39'0 0.0
2017-Oct-10 12:58N 44°08' E 028°39'0 0.0
2017-Oct-10 12:28N 44°08' E 028°39'0 0.0
2017-Oct-10 11:58N 44°08' E 028°39'0 0.0
2017-Oct-10 11:28N 44°08' E 028°39'0 0.0
2017-Oct-10 10:58N 44°08' E 028°39'0 0.0
2017-Oct-10 10:28N 44°08' E 028°39'0 0.0
2017-Oct-10 09:58N 44°08' E 028°39'0 0.0
2017-Oct-10 09:28N 44°08' E 028°39'0 0.0
2017-Oct-10 08:55N 44°08' E 028°39'0 0.0
2017-Oct-10 08:28N 44°08' E 028°39'0 0.0
2017-Oct-10 07:58N 44°08' E 028°39'0 0.0
2017-Oct-10 07:28N 44°08' E 028°39'0 0.0
2017-Oct-10 06:58N 44°08' E 028°39'0 0.0
2017-Oct-10 06:28N 44°08' E 028°39'0 0.0
2017-Oct-10 05:58N 44°08' E 028°39'0 0.0
2017-Oct-10 05:28N 44°08' E 028°39'0 0.0
2017-Oct-10 04:58N 44°08' E 028°39'0 0.0
2017-Oct-10 04:28N 44°08' E 028°39'0 0.0
2017-Oct-10 03:58N 44°08' E 028°39'0 0.0
2017-Oct-10 03:28N 44°08' E 028°39'0 0.0
2017-Oct-10 02:58N 44°08' E 028°39'0 0.0
2017-Oct-10 02:28N 44°08' E 028°39'0 0.0
2017-Oct-10 01:58N 44°08' E 028°39'0 0.0
2017-Oct-10 01:28N 44°08' E 028°39'0 0.0
2017-Oct-10 00:58N 44°08' E 028°39'0 0.0
2017-Oct-10 00:28N 44°08' E 028°39'0 0.0
2017-Oct-09 23:58N 44°08' E 028°39'0 0.0
2017-Oct-09 23:28N 44°08' E 028°39'0 0.0
2017-Oct-09 22:58N 44°08' E 028°39'0 0.0
2017-Oct-09 22:28N 44°08' E 028°39'0 0.0
2017-Oct-09 21:58N 44°08' E 028°39'0 0.0
2017-Oct-09 21:28N 44°08' E 028°39'0 0.0
2017-Oct-09 20:58N 44°08' E 028°39'0 0.0
2017-Oct-09 20:28N 44°08' E 028°39'0 0.0
2017-Oct-09 19:58N 44°08' E 028°39'0 0.0
2017-Oct-09 19:28N 44°08' E 028°39'0 0.0
2017-Oct-09 18:58N 44°08' E 028°39'0 0.0
2017-Oct-09 18:28N 44°08' E 028°39'0 0.0
2017-Oct-09 17:58N 44°08' E 028°39'0 0.0
2017-Oct-09 17:28N 44°08' E 028°39'0 0.0
2017-Oct-09 16:58N 44°08' E 028°39'0 0.0
2017-Oct-09 16:28N 44°08' E 028°39'0 0.0
2017-Oct-09 15:58N 44°08' E 028°39'0 0.2
2017-Oct-09 15:28N 44°08' E 028°39'0 0.0
2017-Oct-09 14:58N 44°08' E 028°39'0 0.0
2017-Oct-09 14:28N 44°08' E 028°39'0 0.0
2017-Oct-09 13:55N 44°08' E 028°39'0 0.0
2017-Oct-09 13:28N 44°08' E 028°39'0 0.0
2017-Oct-09 12:58N 44°08' E 028°39'0 0.0
2017-Oct-09 12:28N 44°08' E 028°39'0 0.0
2017-Oct-09 11:58N 44°08' E 028°39'0 0.0
2017-Oct-09 11:28N 44°08' E 028°39'0 0.0
2017-Oct-09 10:58N 44°08' E 028°39'0 0.0
2017-Oct-09 10:28N 44°08' E 028°39'0 0.0
2017-Oct-09 09:58N 44°08' E 028°39'0 0.0
2017-Oct-09 09:28N 44°08' E 028°39'0 0.0
2017-Oct-09 08:58N 44°08' E 028°39'0 0.0
2017-Oct-09 08:28N 44°08' E 028°39'0 0.0
2017-Oct-09 07:58N 44°08' E 028°39'0 0.0
2017-Oct-09 07:28N 44°08' E 028°39'0 0.0
2017-Oct-09 06:58N 44°08' E 028°39'0 0.0
2017-Oct-09 06:28N 44°08' E 028°39'0 0.0
2017-Oct-09 05:55N 44°08' E 028°39'0 0.0
2017-Oct-09 05:28N 44°08' E 028°39'0 0.0
2017-Oct-09 04:58N 44°08' E 028°39'0 0.0
2017-Oct-09 04:28N 44°08' E 028°39'0 0.0
2017-Oct-09 03:58N 44°08' E 028°39'0 0.0
2017-Oct-09 03:28N 44°08' E 028°39'0 0.0
2017-Oct-09 02:58N 44°08' E 028°39'0 0.0
2017-Oct-09 02:28N 44°08' E 028°39'0 0.0
2017-Oct-09 01:58N 44°08' E 028°39'0 0.0
2017-Oct-09 01:28N 44°08' E 028°39'0 0.0
2017-Oct-09 00:58N 44°08' E 028°39'0 0.0
2017-Oct-09 00:28N 44°08' E 028°39'0 0.0
2017-Oct-08 23:58N 44°08' E 028°39'0 0.0
2017-Oct-08 23:28N 44°08' E 028°39'0 0.0
2017-Oct-08 22:58N 44°08' E 028°39'0 0.0
2017-Oct-08 22:28N 44°08' E 028°39'0 0.0
2017-Oct-08 21:58N 44°08' E 028°39'0 0.0
2017-Oct-08 21:28N 44°08' E 028°39'0 0.0
2017-Oct-08 20:58N 44°08' E 028°39'0 0.0
2017-Oct-08 20:28N 44°08' E 028°39'0 0.0
2017-Oct-08 19:58N 44°08' E 028°39'0 0.0
2017-Oct-08 19:28N 44°08' E 028°39'0 0.0
2017-Oct-08 18:58N 44°08' E 028°39'0 0.0
2017-Oct-08 18:28N 44°08' E 028°39'0 0.0
2017-Oct-08 17:58N 44°08' E 028°39'0 0.0
2017-Oct-08 17:28N 44°08' E 028°39'0 0.0
2017-Oct-08 16:58N 44°08' E 028°39'0 0.0
2017-Oct-08 16:28N 44°08' E 028°39'0 0.0
2017-Oct-08 15:58N 44°08' E 028°39'0 0.0
2017-Oct-08 15:28N 44°08' E 028°39'0 0.0
2017-Oct-08 14:58N 44°08' E 028°39'0 0.0
2017-Oct-08 14:28N 44°08' E 028°39'0 0.0
2017-Oct-08 13:58N 44°08' E 028°39'0 0.0
2017-Oct-08 13:28N 44°08' E 028°39'0 0.0
2017-Oct-08 12:58N 44°08' E 028°39'0 0.0
2017-Oct-08 12:28N 44°08' E 028°39'0 0.0
2017-Oct-08 11:58N 44°08' E 028°39'0 0.0
2017-Oct-08 11:28N 44°08' E 028°39'0 0.0
2017-Oct-08 10:58N 44°08' E 028°39'0 0.0
2017-Oct-08 10:28N 44°08' E 028°39'0 0.0
2017-Oct-08 09:58N 44°08' E 028°39'0 0.0
2017-Oct-08 09:28N 44°08' E 028°39'0 0.0
2017-Oct-08 08:58N 44°08' E 028°39'0 0.0
2017-Oct-08 08:28N 44°08' E 028°39'0 0.0
2017-Oct-08 07:58N 44°08' E 028°39'0 0.0
2017-Oct-08 07:28N 44°08' E 028°39'0 0.0
2017-Oct-08 06:58N 44°08' E 028°39'0 0.0
2017-Oct-08 06:28N 44°08' E 028°39'0 0.0
2017-Oct-08 05:58N 44°08' E 028°39'0 0.0
2017-Oct-08 05:28N 44°08' E 028°39'0 0.0
2017-Oct-08 04:58N 44°08' E 028°39'0 0.0
2017-Oct-08 04:28N 44°08' E 028°39'0 0.0
2017-Oct-08 03:58N 44°08' E 028°39'0 0.0
2017-Oct-08 03:28N 44°08' E 028°39'0 0.0
2017-Oct-08 02:58N 44°08' E 028°39'0 0.0
2017-Oct-08 02:28N 44°08' E 028°39'0 0.0
2017-Oct-08 01:58N 44°08' E 028°39'0 0.0
2017-Oct-08 01:28N 44°08' E 028°39'0 0.0
2017-Oct-08 00:58N 44°08' E 028°39'0 0.0
2017-Oct-08 00:28N 44°08' E 028°39'0 0.0
2017-Oct-07 23:58N 44°08' E 028°39'0 0.0
2017-Oct-07 23:28N 44°08' E 028°39'0 0.0
2017-Oct-07 22:58N 44°08' E 028°39'0 0.0
2017-Oct-07 22:28N 44°08' E 028°39'0 0.0
2017-Oct-07 21:58N 44°08' E 028°39'0 0.0
2017-Oct-07 21:28N 44°08' E 028°39'0 0.0
2017-Oct-07 20:58N 44°08' E 028°39'0 0.0
2017-Oct-07 20:28N 44°08' E 028°39'0 0.0
2017-Oct-07 19:58N 44°08' E 028°39'0 0.0
2017-Oct-07 19:28N 44°08' E 028°39'  
Track history (hours):
 
Tides and Currents Weather Stations Pressure Air Temp Water Temp Dewpoint Dewpoint Depression Visibility Wind Speed Wind Dir Waves Ship Positions

Faxon

Last reported at 2017-Oct-17 18:59 UTC. Time now 2017-Oct-18 11:26 UTC.
Position N 40°46' E 029°32'.

Length 175 m; draft 7.5 m.

Type: Tanker. MMSI: 677053000.

Date/timePositionNaut miles runAvg speedWind from/ knotsBaromVisibWave heightAir tempDewpointWater temp
2017-Oct-17 18:59N 40°46' E 029°32'3 5.1
2017-Oct-17 18:27N 40°46' E 029°28'1 2.8
2017-Oct-17 18:00N 40°46' E 029°26'0 0.0
2017-Oct-17 03:41N 40°46' E 029°26'0 0.0
2017-Oct-15 22:17N 40°46' E 029°26'0 0.0
2017-Oct-15 01:34N 40°46' E 029°26'0 1.9
2017-Oct-15 01:30N 40°46' E 029°26'3 6.6
2017-Oct-15 01:00N 40°44' E 029°23'4 8.3
2017-Oct-15 00:30N 40°43' E 029°18'5 9.6
2017-Oct-14 23:57N 40°46' E 029°11'5 9.6
2017-Oct-14 23:27N 40°48' E 029°06'4 9.4
2017-Oct-14 23:00N 40°50' E 029°01'164 6.0
2017-Oct-13 19:38N 43°34' E 028°48'1 9.4
2017-Oct-13 19:29N 43°35' E 028°48'4 9.4
2017-Oct-13 19:00N 43°40' E 028°48'5 9.4
2017-Oct-13 18:30N 43°44' E 028°47'5 9.4
2017-Oct-13 18:00N 43°49' E 028°46'5 9.4
2017-Oct-13 17:30N 43°54' E 028°45'5 9.5
2017-Oct-13 17:00N 43°58' E 028°44'5 9.4
2017-Oct-13 16:30N 44°03' E 028°43'5 9.1
2017-Oct-13 16:00N 44°07' E 028°41'2 3.6
2017-Oct-13 15:30N 44°08' E 028°39'0 1.0
2017-Oct-13 15:00N 44°08' E 028°39'0 0.0
2017-Oct-13 14:25N 44°08' E 028°39'0 0.0
2017-Oct-13 13:58N 44°08' E 028°39'0 0.0
2017-Oct-13 13:28N 44°08' E 028°39'0 0.0
2017-Oct-13 12:58N 44°08' E 028°39'0 0.0
2017-Oct-13 12:28N 44°08' E 028°39'0 0.0
2017-Oct-13 11:58N 44°08' E 028°39'0 0.0
2017-Oct-13 11:28N 44°08' E 028°39'0 0.0
2017-Oct-13 10:58N 44°08' E 028°39'0 0.0
2017-Oct-13 10:28N 44°08' E 028°39'0 0.0
2017-Oct-13 09:58N 44°08' E 028°39'0 0.0
2017-Oct-13 09:28N 44°08' E 028°39'0 0.0
2017-Oct-13 08:58N 44°08' E 028°39'0 0.0
2017-Oct-13 08:28N 44°08' E 028°39'0 0.0
2017-Oct-13 07:58N 44°08' E 028°39'0 0.0
2017-Oct-13 07:28N 44°08' E 028°39'0 0.0
2017-Oct-13 06:58N 44°08' E 028°39'0 0.0
2017-Oct-13 06:28N 44°08' E 028°39'0 0.0
2017-Oct-13 05:58N 44°08' E 028°39'0 0.0
2017-Oct-13 05:28N 44°08' E 028°39'0 0.0
2017-Oct-13 04:58N 44°08' E 028°39'0 0.0
2017-Oct-13 04:28N 44°08' E 028°39'0 0.0
2017-Oct-13 03:55N 44°08' E 028°39'0 0.0
2017-Oct-13 03:28N 44°08' E 028°39'0 0.0
2017-Oct-13 02:58N 44°08' E 028°39'0 0.0
2017-Oct-13 02:28N 44°08' E 028°39'0 0.0
2017-Oct-13 01:58N 44°08' E 028°39'0 0.0
2017-Oct-13 01:28N 44°08' E 028°39'0 0.0
2017-Oct-13 00:58N 44°08' E 028°39'0 0.0
2017-Oct-13 00:28N 44°08' E 028°39'0 0.0
2017-Oct-12 23:58N 44°08' E 028°39'0 0.0
2017-Oct-12 23:28N 44°08' E 028°39'0 0.0
2017-Oct-12 22:58N 44°08' E 028°39'0 0.0
2017-Oct-12 22:28N 44°08' E 028°39'0 0.0
2017-Oct-12 21:58N 44°08' E 028°39'0 0.0
2017-Oct-12 21:28N 44°08' E 028°39'0 0.0
2017-Oct-12 20:58N 44°08' E 028°39'0 0.0
2017-Oct-12 20:28N 44°08' E 028°39'0 0.0
2017-Oct-12 19:58N 44°08' E 028°39'0 0.0
2017-Oct-12 19:28N 44°08' E 028°39'0 0.0
2017-Oct-12 18:58N 44°08' E 028°39'0 0.0
2017-Oct-12 18:28N 44°08' E 028°39'0 0.1
2017-Oct-12 17:58N 44°08' E 028°39'0 0.0
2017-Oct-12 17:28N 44°08' E 028°39'0 0.0
2017-Oct-12 16:58N 44°08' E 028°39'0 0.0
2017-Oct-12 16:28N 44°08' E 028°39'0 0.0
2017-Oct-12 15:58N 44°08' E 028°39'0 0.0
2017-Oct-12 15:28N 44°08' E 028°39'0 0.0
2017-Oct-12 14:58N 44°08' E 028°39'0 0.0
2017-Oct-12 14:28N 44°08' E 028°39'0 0.0
2017-Oct-12 13:58N 44°08' E 028°39'0 0.0
2017-Oct-12 13:28N 44°08' E 028°39'0 0.0
2017-Oct-12 12:58N 44°08' E 028°39'0 0.0
2017-Oct-12 12:28N 44°08' E 028°39'0 0.0
2017-Oct-12 11:55N 44°08' E 028°39'0 0.0
2017-Oct-12 11:28N 44°08' E 028°39'0 0.0
2017-Oct-12 10:58N 44°08' E 028°39'0 0.0
2017-Oct-12 10:28N 44°08' E 028°39'0 0.0
2017-Oct-12 09:58N 44°08' E 028°39'0 0.0
2017-Oct-12 09:25N 44°08' E 028°39'0 0.0
2017-Oct-12 08:58N 44°08' E 028°39'0 0.0
2017-Oct-12 08:28N 44°08' E 028°39'0 0.0
2017-Oct-12 07:58N 44°08' E 028°39'0 0.0
2017-Oct-12 07:28N 44°08' E 028°39'0 0.0
2017-Oct-12 06:58N 44°08' E 028°39'0 0.0
2017-Oct-12 06:28N 44°08' E 028°39'0 0.0
2017-Oct-12 05:58N 44°08' E 028°39'0 0.0
2017-Oct-12 05:28N 44°08' E 028°39'0 0.0
2017-Oct-12 04:58N 44°08' E 028°39'0 0.1
2017-Oct-12 04:28N 44°08' E 028°39'0 0.0
2017-Oct-12 03:58N 44°08' E 028°39'0 0.0
2017-Oct-12 03:28N 44°08' E 028°39'0 0.0
2017-Oct-12 02:58N 44°08' E 028°39'0 0.0
2017-Oct-12 02:28N 44°08' E 028°39'0 0.0
2017-Oct-12 01:58N 44°08' E 028°39'0 0.0
2017-Oct-12 01:28N 44°08' E 028°39'0 0.0
2017-Oct-12 00:58N 44°08' E 028°39'0 0.0
2017-Oct-12 00:28N 44°08' E 028°39'0 0.0
2017-Oct-11 23:58N 44°08' E 028°39'0 0.0
2017-Oct-11 23:28N 44°08' E 028°39'0 0.0
2017-Oct-11 22:58N 44°08' E 028°39'0 0.0
2017-Oct-11 22:28N 44°08' E 028°39'0 0.0
2017-Oct-11 21:58N 44°08' E 028°39'0 0.0
2017-Oct-11 21:28N 44°08' E 028°39'0 0.0
2017-Oct-11 20:55N 44°08' E 028°39'0 0.0
2017-Oct-11 20:28N 44°08' E 028°39'0 0.0
2017-Oct-11 19:58N 44°08' E 028°39'0 0.0
2017-Oct-11 19:28N 44°08' E 028°39'0 0.0
2017-Oct-11 18:58N 44°08' E 028°39'0 0.0
2017-Oct-11 18:28N 44°08' E 028°39'0 0.0
2017-Oct-11 17:58N 44°08' E 028°39'0 0.0
2017-Oct-11 17:28N 44°08' E 028°39'0 0.0
2017-Oct-11 16:58N 44°08' E 028°39'0 0.0
2017-Oct-10 23:58N 44°08' E 028°39'0 0.0
2017-Oct-10 23:28N 44°08' E 028°39'0 0.0
2017-Oct-10 22:58N 44°08' E 028°39'0 0.0
2017-Oct-10 22:28N 44°08' E 028°39'0 0.0
2017-Oct-10 21:58N 44°08' E 028°39'0 0.0
2017-Oct-10 21:28N 44°08' E 028°39'0 0.0
2017-Oct-10 20:58N 44°08' E 028°39'0 0.0
2017-Oct-10 20:28N 44°08' E 028°39'0 0.0
2017-Oct-10 19:58N 44°08' E 028°39'0 0.0
2017-Oct-10 19:28N 44°08' E 028°39'0 0.0
2017-Oct-10 18:58N 44°08' E 028°39'0 0.0
2017-Oct-10 18:28N 44°08' E 028°39'0 0.0
2017-Oct-10 17:58N 44°08' E 028°39'0 0.0
2017-Oct-10 17:28N 44°08' E 028°39'0 0.0
2017-Oct-10 16:55N 44°08' E 028°39'0 0.0
2017-Oct-10 16:28N 44°08' E 028°39'0 0.0
2017-Oct-10 15:58N 44°08' E 028°39'0 0.0
2017-Oct-10 15:28N 44°08' E 028°39'0 0.0
2017-Oct-10 14:58N 44°08' E 028°39'0 0.0
2017-Oct-10 13:55N 44°08' E 028°39'0 0.0
2017-Oct-10 13:25N 44°08' E 028°39'0 0.0
2017-Oct-10 12:58N 44°08' E 028°39'0 0.0
2017-Oct-10 12:28N 44°08' E 028°39'0 0.0
2017-Oct-10 11:58N 44°08' E 028°39'0 0.0
2017-Oct-10 11:28N 44°08' E 028°39'0 0.0
2017-Oct-10 10:58N 44°08' E 028°39'0 0.0
2017-Oct-10 10:28N 44°08' E 028°39'0 0.0
2017-Oct-10 09:58N 44°08' E 028°39'0 0.0
2017-Oct-10 09:28N 44°08' E 028°39'0 0.0
2017-Oct-10 08:55N 44°08' E 028°39'0 0.0
2017-Oct-10 08:28N 44°08' E 028°39'0 0.0
2017-Oct-10 07:58N 44°08' E 028°39'0 0.0
2017-Oct-10 07:28N 44°08' E 028°39'0 0.0
2017-Oct-10 06:58N 44°08' E 028°39'0 0.0
2017-Oct-10 06:28N 44°08' E 028°39'0 0.0
2017-Oct-10 05:58N 44°08' E 028°39'0 0.0
2017-Oct-10 05:28N 44°08' E 028°39'0 0.0
2017-Oct-10 04:58N 44°08' E 028°39'0 0.0
2017-Oct-10 04:28N 44°08' E 028°39'0 0.0
2017-Oct-10 03:58N 44°08' E 028°39'0 0.0
2017-Oct-10 03:28N 44°08' E 028°39'0 0.0
2017-Oct-10 02:58N 44°08' E 028°39'0 0.0
2017-Oct-10 02:28N 44°08' E 028°39'0 0.0
2017-Oct-10 01:58N 44°08' E 028°39'0 0.0
2017-Oct-10 01:28N 44°08' E 028°39'0 0.0
2017-Oct-10 00:58N 44°08' E 028°39'0 0.0
2017-Oct-10 00:28N 44°08' E 028°39'0 0.0
2017-Oct-09 23:58N 44°08' E 028°39'0 0.0
2017-Oct-09 23:28N 44°08' E 028°39'0 0.0
2017-Oct-09 22:58N 44°08' E 028°39'0 0.0
2017-Oct-09 22:28N 44°08' E 028°39'0 0.0
2017-Oct-09 21:58N 44°08' E 028°39'0 0.0
2017-Oct-09 21:28N 44°08' E 028°39'0 0.0
2017-Oct-09 20:58N 44°08' E 028°39'0 0.0
2017-Oct-09 20:28N 44°08' E 028°39'0 0.0
2017-Oct-09 19:58N 44°08' E 028°39'0 0.0
2017-Oct-09 19:28N 44°08' E 028°39'0 0.0
2017-Oct-09 18:58N 44°08' E 028°39'0 0.0
2017-Oct-09 18:28N 44°08' E 028°39'0 0.0
2017-Oct-09 17:58N 44°08' E 028°39'0 0.0
2017-Oct-09 17:28N 44°08' E 028°39'0 0.0
2017-Oct-09 16:58N 44°08' E 028°39'0 0.0
2017-Oct-09 16:28N 44°08' E 028°39'0 0.0
2017-Oct-09 15:58N 44°08' E 028°39'0 0.2
2017-Oct-09 15:28N 44°08' E 028°39'0 0.0
2017-Oct-09 14:58N 44°08' E 028°39'0 0.0
2017-Oct-09 14:28N 44°08' E 028°39'0 0.0
2017-Oct-09 13:55N 44°08' E 028°39'0 0.0
2017-Oct-09 13:28N 44°08' E 028°39'0 0.0
2017-Oct-09 12:58N 44°08' E 028°39'0 0.0
2017-Oct-09 12:28N 44°08' E 028°39'0 0.0
2017-Oct-09 11:58N 44°08' E 028°39'0 0.0
2017-Oct-09 11:28N 44°08' E 028°39'0 0.0
2017-Oct-09 10:58N 44°08' E 028°39'0 0.0
2017-Oct-09 10:28N 44°08' E 028°39'0 0.0
2017-Oct-09 09:58N 44°08' E 028°39'0 0.0
2017-Oct-09 09:28N 44°08' E 028°39'0 0.0
2017-Oct-09 08:58N 44°08' E 028°39'0 0.0
2017-Oct-09 08:28N 44°08' E 028°39'0 0.0
2017-Oct-09 07:58N 44°08' E 028°39'0 0.0
2017-Oct-09 07:28N 44°08' E 028°39'0 0.0
2017-Oct-09 06:58N 44°08' E 028°39'0 0.0
2017-Oct-09 06:28N 44°08' E 028°39'0 0.0
2017-Oct-09 05:55N 44°08' E 028°39'0 0.0
2017-Oct-09 05:28N 44°08' E 028°39'0 0.0
2017-Oct-09 04:58N 44°08' E 028°39'0 0.0
2017-Oct-09 04:28N 44°08' E 028°39'0 0.0
2017-Oct-09 03:58N 44°08' E 028°39'0 0.0
2017-Oct-09 03:28N 44°08' E 028°39'0 0.0
2017-Oct-09 02:58N 44°08' E 028°39'0 0.0
2017-Oct-09 02:28N 44°08' E 028°39'0 0.0
2017-Oct-09 01:58N 44°08' E 028°39'0 0.0
2017-Oct-09 01:28N 44°08' E 028°39'0 0.0
2017-Oct-09 00:58N 44°08' E 028°39'0 0.0
2017-Oct-09 00:28N 44°08' E 028°39'0 0.0
2017-Oct-08 23:58N 44°08' E 028°39'0 0.0
2017-Oct-08 23:28N 44°08' E 028°39'0 0.0
2017-Oct-08 22:58N 44°08' E 028°39'0 0.0
2017-Oct-08 22:28N 44°08' E 028°39'0 0.0
2017-Oct-08 21:58N 44°08' E 028°39'0 0.0
2017-Oct-08 21:28N 44°08' E 028°39'0 0.0
2017-Oct-08 20:58N 44°08' E 028°39'0 0.0
2017-Oct-08 20:28N 44°08' E 028°39'0 0.0
2017-Oct-08 19:58N 44°08' E 028°39'0 0.0
2017-Oct-08 19:28N 44°08' E 028°39'0 0.0
2017-Oct-08 18:58N 44°08' E 028°39'0 0.0
2017-Oct-08 18:28N 44°08' E 028°39'0 0.0
2017-Oct-08 17:58N 44°08' E 028°39'0 0.0
2017-Oct-08 17:28N 44°08' E 028°39'0 0.0
2017-Oct-08 16:58N 44°08' E 028°39'0 0.0
2017-Oct-08 16:28N 44°08' E 028°39'0 0.0
2017-Oct-08 15:58N 44°08' E 028°39'0 0.0
2017-Oct-08 15:28N 44°08' E 028°39'0 0.0
2017-Oct-08 14:58N 44°08' E 028°39'0 0.0
2017-Oct-08 14:28N 44°08' E 028°39'0 0.0
2017-Oct-08 13:58N 44°08' E 028°39'0 0.0
2017-Oct-08 13:28N 44°08' E 028°39'0 0.0
2017-Oct-08 12:58N 44°08' E 028°39'0 0.0
2017-Oct-08 12:28N 44°08' E 028°39'0 0.0
2017-Oct-08 11:58N 44°08' E 028°39'0 0.0
2017-Oct-08 11:28N 44°08' E 028°39'0 0.0
2017-Oct-08 10:58N 44°08' E 028°39'0 0.0
2017-Oct-08 10:28N 44°08' E 028°39'0 0.0
2017-Oct-08 09:58N 44°08' E 028°39'0 0.0
2017-Oct-08 09:28N 44°08' E 028°39'0 0.0
2017-Oct-08 08:58N 44°08' E 028°39'0 0.0
2017-Oct-08 08:28N 44°08' E 028°39'0 0.0
2017-Oct-08 07:58N 44°08' E 028°39'0 0.0
2017-Oct-08 07:28N 44°08' E 028°39'0 0.0
2017-Oct-08 06:58N 44°08' E 028°39'0 0.0
2017-Oct-08 06:28N 44°08' E 028°39'0 0.0
2017-Oct-08 05:58N 44°08' E 028°39'0 0.0
2017-Oct-08 05:28N 44°08' E 028°39'0 0.0
2017-Oct-08 04:58N 44°08' E 028°39'0 0.0
2017-Oct-08 04:28N 44°08' E 028°39'0 0.0
2017-Oct-08 03:58N 44°08' E 028°39'0 0.0
2017-Oct-08 03:28N 44°08' E 028°39'0 0.0
2017-Oct-08 02:58N 44°08' E 028°39'0 0.0
2017-Oct-08 02:28N 44°08' E 028°39'0 0.0
2017-Oct-08 01:58N 44°08' E 028°39'0 0.0
2017-Oct-08 01:28N 44°08' E 028°39'0 0.0
2017-Oct-08 00:58N 44°08' E 028°39'0 0.0
2017-Oct-08 00:28N 44°08' E 028°39'0 0.0
2017-Oct-07 23:58N 44°08' E 028°39'0 0.0
2017-Oct-07 23:28N 44°08' E 028°39'0 0.0
2017-Oct-07 22:58N 44°08' E 028°39'0 0.0
2017-Oct-07 22:28N 44°08' E 028°39'0 0.0
2017-Oct-07 21:58N 44°08' E 028°39'0 0.0
2017-Oct-07 21:28N 44°08' E 028°39'0 0.0
2017-Oct-07 20:58N 44°08' E 028°39'0 0.0
2017-Oct-07 20:28N 44°08' E 028°39'0 0.0
2017-Oct-07 19:58N 44°08' E 028°39'0 0.0
2017-Oct-07 19:28N 44°08' E 028°39'  

Dump ship's entire track history